createdAt,value
2023-04-26T00:02:18.350Z,3.47
2023-04-26T00:05:22.793Z,3.50
2023-04-26T00:08:25.756Z,4.23
2023-04-26T00:11:28.442Z,4.43
2023-04-26T00:14:31.124Z,4.13
2023-04-26T00:17:33.963Z,4.20
2023-04-26T00:20:38.515Z,4.27
2023-04-26T00:23:42.207Z,3.83
2023-04-26T00:26:44.868Z,4.20
2023-04-26T00:29:47.623Z,4.40
2023-04-26T00:32:50.373Z,4.30
2023-04-26T00:35:54.375Z,4.27
2023-04-26T00:38:57.836Z,4.47
2023-04-26T00:42:00.580Z,4.10
2023-04-26T00:45:04.234Z,4.40
2023-04-26T00:48:07.294Z,4.33
2023-04-26T00:51:11.466Z,4.13
2023-04-26T00:54:15.448Z,3.90
2023-04-26T00:57:18.219Z,3.90
2023-04-26T01:00:22.400Z,4.13
2023-04-26T01:03:26.773Z,4.30
2023-04-26T01:06:35.568Z,3.77
2023-04-26T01:09:38.389Z,3.23
2023-04-26T01:12:41.539Z,4.23
2023-04-26T01:15:46.703Z,3.90
2023-04-26T01:18:52.490Z,3.70
2023-04-26T01:21:56.810Z,3.23
2023-04-26T01:25:02.479Z,3.40
2023-04-26T01:28:05.342Z,3.30
2023-04-26T01:31:08.105Z,3.40
2023-04-26T01:34:10.978Z,3.43
2023-04-26T01:37:13.728Z,3.53
2023-04-26T01:40:17.715Z,3.20
2023-04-26T01:43:22.543Z,3.50
2023-04-26T01:46:25.668Z,3.93
2023-04-26T01:49:28.383Z,3.37
2023-04-26T01:52:31.017Z,3.77
2023-04-26T01:55:36.173Z,3.50
2023-04-26T01:58:38.991Z,3.70
2023-04-26T02:01:43.272Z,3.57
2023-04-26T02:04:45.991Z,3.50
2023-04-26T02:07:49.216Z,3.10
2023-04-26T02:10:53.451Z,3.10
2023-04-26T02:13:56.383Z,3.53
2023-04-26T02:16:59.036Z,3.60
2023-04-26T02:20:02.047Z,3.33
2023-04-26T02:23:09.783Z,3.53
2023-04-26T02:26:14.780Z,3.67
2023-04-26T02:29:17.457Z,3.60
2023-04-26T02:32:20.158Z,3.57
2023-04-26T02:35:23.170Z,3.47
2023-04-26T02:38:26.217Z,3.40
2023-04-26T02:41:32.720Z,2.83
2023-04-26T02:44:35.389Z,3.63
2023-04-26T02:47:38.755Z,3.63
2023-04-26T02:50:41.530Z,4.00
2023-04-26T02:53:44.164Z,4.40
2023-04-26T02:56:48.205Z,4.00
2023-04-26T02:59:50.969Z,4.17
2023-04-26T03:02:53.671Z,3.60
2023-04-26T03:05:56.438Z,3.43
2023-04-26T03:08:59.455Z,3.37
2023-04-26T03:12:03.543Z,3.47
2023-04-26T03:15:07.022Z,3.57
2023-04-26T03:18:13.081Z,3.30
2023-04-26T03:21:15.965Z,3.57
2023-04-26T03:24:18.737Z,3.87
2023-04-26T03:27:22.710Z,3.30
2023-04-26T03:30:25.807Z,3.60
2023-04-26T03:33:28.460Z,4.20
2023-04-26T03:36:31.138Z,4.70
2023-04-26T03:39:33.804Z,5.50
2023-04-26T03:42:37.955Z,4.27
2023-04-26T03:45:47.500Z,4.50
2023-04-26T03:48:50.550Z,4.27
2023-04-26T03:51:53.923Z,4.50
2023-04-26T03:54:56.590Z,3.70
2023-04-26T03:58:00.549Z,4.20
2023-04-26T04:01:04.281Z,4.33
2023-04-26T04:04:07.116Z,3.80
2023-04-26T04:07:09.967Z,3.27
2023-04-26T04:10:12.888Z,4.03
2023-04-26T04:13:16.886Z,4.13
2023-04-26T04:16:19.633Z,3.93
2023-04-26T04:19:22.330Z,4.30
2023-04-26T04:22:25.489Z,4.53
2023-04-26T04:25:28.521Z,4.87
2023-04-26T04:28:34.575Z,3.93
2023-04-26T04:31:37.997Z,4.53
2023-04-26T04:34:41.697Z,5.00
2023-04-26T04:37:45.581Z,4.97
2023-04-26T04:40:50.023Z,4.07
2023-04-26T04:43:55.083Z,4.13
2023-04-26T04:46:58.424Z,3.50
2023-04-26T04:50:01.995Z,4.47
2023-04-26T04:53:04.827Z,3.83
2023-04-26T04:56:07.914Z,4.00
2023-04-26T04:59:12.060Z,4.30
2023-04-26T05:02:15.375Z,3.87
2023-04-26T05:05:18.220Z,4.07
2023-04-26T05:08:20.921Z,3.97
2023-04-26T05:11:23.586Z,4.30
2023-04-26T05:14:28.020Z,3.90
2023-04-26T05:17:32.482Z,4.10
2023-04-26T05:20:35.275Z,4.30
2023-04-26T05:23:37.951Z,4.50
2023-04-26T05:26:40.831Z,5.30
2023-04-26T05:29:44.901Z,6.13
2023-04-26T05:32:47.626Z,5.70
2023-04-26T05:35:50.359Z,6.07
2023-04-26T05:38:53.109Z,6.43
2023-04-26T05:41:55.794Z,6.97
2023-04-26T05:45:00.318Z,5.77
2023-04-26T05:48:03.697Z,4.93
2023-04-26T05:51:09.410Z,5.53
2023-04-26T05:54:12.038Z,3.87
2023-04-26T05:57:14.886Z,3.60
2023-04-26T06:00:22.746Z,3.37
2023-04-26T06:03:26.003Z,2.90
2023-04-26T06:06:28.772Z,3.27
2023-04-26T06:09:32.551Z,3.40
2023-04-26T06:12:35.331Z,2.40
2023-04-26T06:15:39.457Z,2.30
2023-04-26T06:18:42.098Z,2.40
2023-04-26T06:21:44.772Z,2.60
2023-04-26T06:24:47.393Z,2.60
2023-04-26T06:27:50.085Z,2.40
2023-04-26T06:30:54.085Z,2.37
2023-04-26T06:33:56.875Z,2.60
2023-04-26T06:36:59.705Z,2.40
2023-04-26T06:40:02.678Z,2.13
2023-04-26T06:43:05.739Z,2.30
2023-04-26T06:46:09.795Z,3.00
2023-04-26T06:49:12.509Z,2.83
2023-04-26T06:52:15.360Z,2.30
2023-04-26T06:55:19.557Z,2.80
2023-04-26T06:58:22.286Z,3.00
2023-04-26T07:01:26.432Z,3.07
2023-04-26T07:04:29.574Z,3.20
2023-04-26T07:07:32.489Z,3.00
2023-04-26T07:10:36.864Z,3.13
2023-04-26T07:13:40.939Z,3.60
2023-04-26T07:16:45.194Z,3.10
2023-04-26T07:19:47.883Z,3.10
2023-04-26T07:22:50.802Z,2.90
2023-04-26T07:25:54.845Z,3.20
2023-04-26T07:28:58.658Z,2.90
2023-04-26T07:32:02.877Z,2.80
2023-04-26T07:35:08.356Z,2.93
2023-04-26T07:38:11.074Z,2.43
2023-04-26T07:41:13.967Z,2.90
2023-04-26T07:44:16.718Z,3.00
2023-04-26T07:47:20.691Z,2.30
2023-04-26T07:50:23.395Z,2.63
2023-04-26T07:53:32.118Z,2.40
2023-04-26T07:56:34.798Z,2.00
2023-04-26T07:59:37.419Z,2.03
2023-04-26T08:02:44.526Z,1.97
2023-04-26T08:05:48.409Z,2.37
2023-04-26T08:08:53.599Z,2.33
2023-04-26T08:11:56.310Z,2.17
2023-04-26T08:15:04.614Z,2.50
2023-04-26T08:18:15.858Z,2.03
2023-04-26T08:21:18.500Z,0.97
2023-04-26T08:24:21.639Z,1.93
2023-04-26T08:27:24.257Z,2.00
2023-04-26T08:30:26.926Z,1.87
2023-04-26T08:33:31.511Z,1.70
2023-04-26T08:36:37.425Z,1.70
2023-04-26T08:39:42.438Z,1.90
2023-04-26T08:42:45.163Z,2.00
2023-04-26T08:45:48.256Z,1.70
2023-04-26T08:49:05.676Z,1.67
2023-04-26T08:52:11.030Z,1.50
2023-04-26T08:55:16.458Z,1.47
2023-04-26T08:58:19.891Z,1.90
2023-04-26T09:01:24.907Z,1.60
2023-04-26T09:04:29.074Z,1.70
2023-04-26T09:07:33.978Z,1.60
2023-04-26T09:10:36.637Z,1.80
2023-04-26T09:13:39.330Z,1.63
2023-04-26T09:16:42.176Z,2.00
2023-04-26T09:19:46.221Z,1.77
2023-04-26T09:22:49.908Z,1.83
2023-04-26T09:25:52.563Z,1.80
2023-04-26T09:29:13.846Z,1.80
2023-04-26T09:32:19.711Z,1.60
2023-04-26T09:35:32.113Z,1.77
2023-04-26T09:38:43.723Z,2.23
2023-04-26T09:41:46.557Z,1.73
2023-04-26T09:44:49.209Z,1.80
2023-04-26T09:47:52.402Z,2.00
2023-04-26T09:50:59.246Z,1.90
2023-04-26T09:54:01.896Z,1.90
2023-04-26T09:57:05.100Z,1.70
2023-04-26T10:00:12.335Z,1.67
2023-04-26T10:03:16.235Z,1.40
2023-04-26T10:06:20.474Z,1.90
2023-04-26T10:09:23.275Z,1.50
2023-04-26T10:12:25.994Z,1.87
2023-04-26T10:15:29.135Z,1.47
2023-04-26T10:18:33.345Z,1.90
2023-04-26T10:21:40.525Z,2.40
2023-04-26T10:24:44.820Z,2.07
2023-04-26T10:27:52.638Z,1.63
2023-04-26T10:30:56.397Z,2.00
2023-04-26T10:34:21.454Z,1.43
2023-04-26T10:37:25.480Z,1.90
2023-04-26T10:40:29.797Z,1.60
2023-04-26T10:43:32.855Z,1.87
2023-04-26T10:46:37.743Z,1.97
2023-04-26T10:49:49.694Z,1.83
2023-04-26T10:53:08.995Z,1.60
2023-04-26T10:56:11.668Z,1.90
2023-04-26T11:02:49.748Z,2.07
2023-04-26T11:05:56.988Z,1.70
2023-04-26T11:09:03.614Z,2.00
2023-04-26T11:12:07.776Z,1.90
2023-04-26T11:15:13.756Z,2.00
2023-04-26T11:18:19.921Z,1.73
2023-04-26T11:21:22.650Z,1.70
2023-04-26T11:24:32.031Z,1.90
2023-04-26T11:27:34.659Z,1.70
2023-04-26T11:30:37.788Z,1.83
2023-04-26T11:33:42.295Z,1.97
2023-04-26T11:36:46.393Z,2.17
2023-04-26T11:39:53.017Z,1.80
2023-04-26T11:42:55.736Z,2.20
2023-04-26T11:46:01.390Z,2.00
2023-04-26T11:49:04.157Z,2.00
2023-04-26T11:52:07.462Z,2.10
2023-04-26T11:55:11.662Z,1.80
2023-04-26T11:58:15.420Z,1.77
2023-04-26T12:01:23.781Z,1.87
2023-04-26T12:04:30.318Z,1.87
2023-04-26T12:07:37.828Z,2.00
2023-04-26T12:10:42.024Z,1.67
2023-04-26T12:13:44.955Z,2.00
2023-04-26T12:16:47.786Z,1.80
2023-04-26T12:19:51.159Z,1.80
2023-04-26T12:23:05.522Z,1.87
2023-04-26T12:26:12.075Z,1.90
2023-04-26T12:29:14.756Z,2.73
2023-04-26T12:32:17.385Z,1.70
2023-04-26T12:35:20.073Z,1.57
2023-04-26T12:38:22.757Z,1.97
2023-04-26T12:41:26.823Z,1.80
2023-04-26T12:44:29.533Z,1.70
2023-04-26T12:47:32.756Z,2.10
2023-04-26T12:50:35.456Z,1.90
2023-04-26T12:53:38.106Z,1.63
2023-04-26T12:56:44.333Z,2.13
2023-04-26T12:59:47.037Z,2.03
2023-04-26T13:02:49.958Z,2.07
2023-04-26T13:05:52.803Z,1.70
2023-04-26T13:08:55.516Z,1.63
2023-04-26T13:11:59.648Z,1.67
2023-04-26T13:15:02.368Z,2.03
2023-04-26T13:18:05.848Z,1.90
2023-04-26T13:21:08.777Z,1.30
2023-04-26T13:24:11.457Z,1.57
2023-04-26T13:27:15.549Z,1.70
2023-04-26T13:30:18.225Z,1.80
2023-04-26T13:33:21.320Z,1.50
2023-04-26T13:36:24.210Z,2.43
2023-04-26T13:39:29.935Z,1.70
2023-04-26T13:42:34.007Z,1.63
2023-04-26T13:45:36.877Z,1.90
2023-04-26T13:48:39.639Z,1.27
2023-04-26T13:51:42.744Z,1.70
2023-04-26T13:54:45.886Z,2.07
2023-04-26T13:57:49.932Z,1.90
2023-04-26T14:00:52.607Z,2.13
2023-04-26T14:03:56.244Z,1.90
2023-04-26T14:06:59.602Z,1.80
2023-04-26T14:10:02.823Z,1.40
2023-04-26T14:13:07.037Z,1.93
2023-04-26T14:16:10.930Z,1.83
2023-04-26T14:19:15.394Z,2.00
2023-04-26T14:22:18.025Z,2.10
2023-04-26T14:25:20.957Z,2.03
2023-04-26T14:28:24.970Z,2.20
2023-04-26T14:31:28.121Z,2.10
2023-04-26T14:34:30.872Z,2.00
2023-04-26T14:37:33.621Z,2.23
2023-04-26T14:40:37.417Z,2.03
2023-04-26T14:43:41.414Z,1.70
2023-04-26T14:46:44.166Z,2.07
2023-04-26T14:49:46.914Z,2.13
2023-04-26T14:52:49.545Z,1.90
2023-04-26T14:55:56.077Z,2.17
2023-04-26T14:59:01.207Z,1.83
2023-04-26T15:02:03.999Z,1.80
2023-04-26T15:05:07.815Z,1.53
2023-04-26T15:08:10.633Z,2.43
2023-04-26T15:11:13.985Z,2.20
2023-04-26T15:14:18.015Z,2.00
2023-04-26T15:17:21.020Z,2.10
2023-04-26T15:20:24.383Z,2.00
2023-04-26T15:23:27.313Z,2.10
2023-04-26T15:26:31.992Z,1.90
2023-04-26T15:29:36.375Z,2.40
2023-04-26T15:32:39.416Z,1.80
2023-04-26T15:35:42.209Z,1.83
2023-04-26T15:38:45.383Z,1.60
2023-04-26T15:41:48.047Z,1.80
2023-04-26T15:44:52.104Z,1.80
2023-04-26T15:47:55.225Z,1.90
2023-04-26T15:50:57.953Z,1.83
2023-04-26T15:54:00.573Z,1.87
2023-04-26T15:57:03.986Z,2.00
2023-04-26T16:00:12.750Z,1.90
2023-04-26T16:03:17.412Z,1.90
2023-04-26T16:06:20.479Z,3.20
2023-04-26T16:09:25.470Z,4.53
2023-04-26T16:12:28.571Z,1.90
2023-04-26T16:15:32.694Z,2.27
2023-04-26T16:18:35.722Z,4.03
2023-04-26T16:21:39.657Z,2.13
2023-04-26T16:24:42.434Z,1.93
2023-04-26T16:27:45.244Z,1.40
2023-04-26T16:30:49.423Z,1.67
2023-04-26T16:33:52.705Z,1.90
2023-04-26T16:36:55.532Z,3.13
2023-04-26T16:39:58.211Z,1.83
2023-04-26T16:43:00.955Z,1.30
2023-04-26T16:46:06.628Z,1.20
2023-04-26T16:49:10.558Z,1.30
2023-04-26T16:52:13.602Z,1.50
2023-04-26T16:55:16.374Z,1.47
2023-04-26T16:58:19.686Z,1.80
2023-04-26T17:01:23.748Z,1.77
2023-04-26T17:04:27.231Z,1.60
2023-04-26T17:07:30.076Z,1.40
2023-04-26T17:10:34.233Z,1.90
2023-04-26T17:13:37.891Z,1.43
2023-04-26T17:16:42.014Z,1.80
2023-04-26T17:19:44.814Z,1.83
2023-04-26T17:22:47.431Z,1.70
2023-04-26T17:25:50.473Z,1.50
2023-04-26T17:28:53.964Z,1.90
2023-04-26T17:31:57.976Z,1.97
2023-04-26T17:35:00.748Z,1.97
2023-04-26T17:38:04.102Z,1.23
2023-04-26T17:41:06.751Z,1.47
2023-04-26T17:44:09.410Z,2.00
2023-04-26T17:47:13.479Z,1.80
2023-04-26T17:50:17.754Z,2.37
2023-04-26T17:53:21.599Z,1.43
2023-04-26T17:56:25.316Z,1.70
2023-04-26T17:59:27.994Z,1.40
2023-04-26T18:02:33.702Z,1.50
2023-04-26T18:05:36.475Z,1.27
2023-04-26T18:08:39.550Z,1.60
2023-04-26T18:11:47.569Z,1.37
2023-04-26T18:14:50.315Z,1.30
2023-04-26T18:17:54.521Z,1.33
2023-04-26T18:20:57.409Z,1.30
2023-04-26T18:24:00.499Z,1.53
2023-04-26T18:27:04.255Z,1.80
2023-04-26T18:30:08.873Z,2.30
2023-04-26T18:33:13.157Z,1.90
2023-04-26T18:36:16.239Z,1.70
2023-04-26T18:39:19.117Z,1.50
2023-04-26T18:42:21.767Z,1.43
2023-04-26T18:45:24.429Z,1.33
2023-04-26T18:48:28.589Z,1.43
2023-04-26T18:51:31.404Z,1.53
2023-04-26T18:54:34.548Z,1.80
2023-04-26T18:57:37.220Z,1.57
2023-04-26T19:00:39.851Z,2.53
2023-04-26T19:03:44.366Z,3.53
2023-04-26T19:06:47.165Z,2.27
2023-04-26T19:09:54.073Z,2.30
2023-04-26T19:12:57.131Z,1.50
2023-04-26T19:16:00.058Z,1.80
2023-04-26T19:19:04.495Z,1.60
2023-04-26T19:22:07.267Z,1.97
2023-04-26T19:25:10.755Z,1.80
2023-04-26T19:28:13.583Z,1.70
2023-04-26T19:31:16.467Z,2.07
2023-04-26T19:34:21.616Z,1.80
2023-04-26T19:37:24.282Z,2.27
2023-04-26T19:40:27.333Z,2.10
2023-04-26T19:43:30.114Z,2.00
2023-04-26T19:46:32.876Z,1.70
2023-04-26T19:49:37.358Z,1.80
2023-04-26T19:52:40.077Z,1.90
2023-04-26T19:55:43.261Z,1.70
2023-04-26T19:58:45.903Z,1.70
2023-04-26T20:01:49.229Z,1.70
2023-04-26T20:04:54.950Z,3.10
2023-04-26T20:07:58.162Z,3.03
2023-04-26T20:11:05.131Z,3.00
2023-04-26T20:14:08.327Z,3.23
2023-04-26T20:17:11.006Z,3.70
2023-04-26T20:20:15.112Z,3.00
2023-04-26T20:23:18.788Z,2.70
2023-04-26T20:26:21.575Z,2.57
2023-04-26T20:29:24.425Z,2.43
2023-04-26T20:32:27.110Z,2.97
2023-04-26T20:35:31.190Z,2.13
2023-04-26T20:38:33.920Z,3.10
2023-04-26T20:41:36.628Z,3.37
2023-04-26T20:44:39.482Z,3.20
2023-04-26T20:47:42.274Z,2.47
2023-04-26T20:50:46.313Z,2.40
2023-04-26T20:53:49.007Z,2.57
2023-04-26T20:56:51.644Z,2.40
2023-04-26T20:59:54.757Z,2.30
2023-04-26T21:02:57.701Z,2.50
2023-04-26T21:06:02.316Z,2.00
2023-04-26T21:09:05.480Z,1.97
2023-04-26T21:12:10.770Z,2.30
2023-04-26T21:15:13.523Z,2.57
2023-04-26T21:18:16.585Z,2.20
2023-04-26T21:21:20.772Z,2.30
2023-04-26T21:24:23.530Z,2.60
2023-04-26T21:27:26.954Z,2.90
2023-04-26T21:30:29.943Z,2.83
2023-04-26T21:33:32.966Z,3.30
2023-04-26T21:36:37.284Z,2.60
2023-04-26T21:39:40.055Z,3.00
2023-04-26T21:42:48.874Z,2.60
2023-04-26T21:45:58.229Z,2.90
2023-04-26T21:49:01.282Z,3.03
2023-04-26T21:52:05.518Z,2.90
2023-04-26T21:55:09.244Z,2.60
2023-04-26T21:58:11.896Z,2.60
2023-04-26T22:01:16.722Z,2.80
2023-04-26T22:04:19.624Z,2.70
2023-04-26T22:07:23.705Z,2.70
2023-04-26T22:10:26.832Z,2.70
2023-04-26T22:13:29.831Z,2.67
2023-04-26T22:16:32.946Z,2.77
2023-04-26T22:19:35.616Z,2.50
2023-04-26T22:22:39.724Z,2.97
2023-04-26T22:25:42.445Z,2.80
2023-04-26T22:28:45.115Z,3.00
2023-04-26T22:31:47.842Z,2.70
2023-04-26T22:34:50.800Z,2.43
2023-04-26T22:37:55.182Z,2.40
2023-04-26T22:40:58.146Z,2.77
2023-04-26T22:44:00.922Z,2.30
2023-04-26T22:47:03.651Z,2.33
2023-04-26T22:50:07.402Z,2.73
2023-04-26T22:53:11.446Z,2.70
2023-04-26T22:56:14.097Z,3.10
2023-04-26T22:59:16.754Z,2.60
2023-04-26T23:02:19.759Z,2.70
2023-04-26T23:05:22.419Z,2.60
2023-04-26T23:08:26.395Z,2.70
2023-04-26T23:11:30.297Z,2.57
2023-04-26T23:14:33.693Z,2.57
2023-04-26T23:17:36.493Z,2.50
2023-04-26T23:20:39.191Z,2.80
2023-04-26T23:23:43.186Z,2.67
2023-04-26T23:26:46.022Z,2.60
2023-04-26T23:29:51.008Z,2.60
2023-04-26T23:32:53.702Z,2.67
2023-04-26T23:35:56.828Z,2.77
2023-04-26T23:39:00.828Z,2.77
2023-04-26T23:42:03.859Z,2.20
2023-04-26T23:45:07.858Z,2.47
2023-04-26T23:48:10.597Z,2.47
2023-04-26T23:51:13.325Z,2.80
2023-04-26T23:54:17.361Z,3.27
2023-04-26T23:57:20.229Z,2.90
